Time;durP1;ratioP1;P1;durP2;ratioP2;P2;SDS_P1;SDS_P2;PMS_P1;PMS_P2;Temp;Humidity;BMP_temperature;BMP_pressure;BME280_temperature;BME280_humidity;BME280_pressure;Samples;Min_cycle;Max_cycle;Signal;HPM_P1;HPM_P2
2021/04/15 00:00:24;;;;;;;9.93;1.92;;;;;;;;;;5087288;28;20012;-75
2021/04/15 00:02:50;;;;;;;5.57;1.35;;;;;;;;;;5078738;28;20044;-75
2021/04/15 00:05:19;;;;;;;12.52;1.58;;;;;;;;;;5089283;28;20047;-75
2021/04/15 00:07:45;;;;;;;10.35;1.85;;;;;;;;;;5090321;28;20027;-75
2021/04/15 00:10:12;;;;;;;9.38;1.90;;;;;;;;;;5086528;28;20118;-75
2021/04/15 00:12:39;;;;;;;9.77;1.90;;;;;;;;;;5089681;28;20131;-75
2021/04/15 00:15:07;;;;;;;8.02;1.90;;;;;;;;;;5090072;28;20032;-75
2021/04/15 00:17:33;;;;;;;8.60;1.70;;;;;;;;;;5085491;28;20510;-75
2021/04/15 00:19:59;;;;;;;9.40;1.45;;;;;;;;;;5087712;28;20020;-75
2021/04/15 00:22:25;;;;;;;8.95;1.73;;;;;;;;;;5091343;28;20061;-75
2021/04/15 00:24:51;;;;;;;9.85;1.95;;;;;;;;;;5080053;28;20059;-75
2021/04/15 00:27:17;;;;;;;9.27;1.90;;;;;;;;;;5088776;28;20097;-75
2021/04/15 00:29:43;;;;;;;12.27;1.92;;;;;;;;;;5085523;28;20063;-75
2021/04/15 00:32:09;;;;;;;15.18;2.58;;;;;;;;;;5090933;28;20040;-75
2021/04/15 00:34:35;;;;;;;11.25;1.63;;;;;;;;;;5089329;28;20035;-75
2021/04/15 00:37:01;;;;;;;9.20;1.90;;;;;;;;;;5090400;28;20024;-75
2021/04/15 00:39:27;;;;;;;8.60;1.70;;;;;;;;;;5083220;28;20035;-75
2021/04/15 00:41:53;;;;;;;11.88;2.30;;;;;;;;;;5088568;28;20068;-76
2021/04/15 00:44:20;;;;;;;17.98;2.08;;;;;;;;;;5074865;28;20027;-75
2021/04/15 00:46:48;;;;;;;8.02;2.05;;;;;;;;;;5090017;28;20089;-75
2021/04/15 00:49:27;;;;;;;9.93;2.05;;;;;;;;;;5072113;28;20032;-74
2021/04/15 00:51:55;;;;;;;10.57;1.90;;;;;;;;;;5083714;28;20039;-76
2021/04/15 00:54:33;;;;;;;8.93;4.25;;;;;;;;;;5086691;28;20032;-74
2021/04/15 00:56:59;;;;;;;8.88;2.08;;;;;;;;;;5078480;28;20050;-77
2021/04/15 00:59:26;;;;;;;6.53;1.40;;;;;;;;;;5083663;28;20049;-76
2021/04/15 01:01:53;;;;;;;7.70;1.63;;;;;;;;;;5081485;28;20554;-75
2021/04/15 01:04:19;;;;;;;10.75;2.50;;;;;;;;;;5083826;28;20024;-76
2021/04/15 01:06:45;;;;;;;10.02;1.85;;;;;;;;;;5089269;28;20098;-75
2021/04/15 01:09:12;;;;;;;9.25;1.95;;;;;;;;;;5089340;28;20295;-75
2021/04/15 01:11:54;;;;;;;13.02;2.50;;;;;;;;;;5086696;28;20035;-76
2021/04/15 01:14:35;;;;;;;14.10;2.45;;;;;;;;;;5087989;28;20102;-76
2021/04/15 01:17:16;;;;;;;15.43;3.70;;;;;;;;;;5086849;28;20118;-76
2021/04/15 01:19:58;;;;;;;10.37;2.30;;;;;;;;;;5088067;28;20575;-76
2021/04/15 01:22:42;;;;;;;8.97;2.43;;;;;;;;;;5085883;28;20276;-76
2021/04/15 01:25:20;;;;;;;7.28;2.45;;;;;;;;;;5079460;28;20035;-76
2021/04/15 01:27:51;;;;;;;9.80;3.47;;;;;;;;;;5085044;28;20479;-75
2021/04/15 01:30:31;;;;;;;8.25;3.70;;;;;;;;;;5087043;28;20028;-76
2021/04/15 01:33:17;;;;;;;11.05;2.17;;;;;;;;;;5082942;28;20081;-75
2021/04/15 01:35:50;;;;;;;10.65;2.72;;;;;;;;;;5086336;28;20027;-76
2021/04/15 01:38:24;;;;;;;7.82;1.92;;;;;;;;;;5087801;28;20061;-76
2021/04/15 01:40:56;;;;;;;7.55;1.55;;;;;;;;;;5079242;28;20033;-76
2021/04/15 01:43:31;;;;;;;8.43;1.98;;;;;;;;;;5087213;28;20115;-76
2021/04/15 01:45:57;;;;;;;7.60;2.08;;;;;;;;;;5074698;28;20040;-76
2021/04/15 01:48:28;;;;;;;9.43;2.13;;;;;;;;;;5085462;28;20032;-76
2021/04/15 01:50:56;;;;;;;6.03;1.92;;;;;;;;;;5088481;28;20070;-75
2021/04/15 01:53:26;;;;;;;9.60;2.28;;;;;;;;;;5089443;28;20607;-75
2021/04/15 01:55:55;;;;;;;10.55;2.08;;;;;;;;;;5089614;28;20508;-76
2021/04/15 01:58:24;;;;;;;7.05;2.28;;;;;;;;;;5086142;28;20490;-76
2021/04/15 02:00:51;;;;;;;5.72;2.38;;;;;;;;;;5077822;28;20085;-76
2021/04/15 02:03:24;;;;;;;6.45;2.15;;;;;;;;;;5082418;28;20110;-75
2021/04/15 02:05:53;;;;;;;6.25;1.90;;;;;;;;;;5080967;28;20319;-75
2021/04/15 02:08:22;;;;;;;15.32;2.10;;;;;;;;;;5082465;28;20020;-75
2021/04/15 02:10:50;;;;;;;13.35;2.95;;;;;;;;;;5081535;28;20673;-76
2021/04/15 02:13:18;;;;;;;4.15;1.33;;;;;;;;;;5090103;28;20048;-77
2021/04/15 02:15:46;;;;;;;4.78;1.17;;;;;;;;;;5088011;28;20027;-77
2021/04/15 02:18:16;;;;;;;5.03;1.23;;;;;;;;;;5088593;28;20505;-78
2021/04/15 02:20:42;;;;;;;8.20;1.08;;;;;;;;;;5081620;28;20039;-79
2021/04/15 02:23:22;;;;;;;2.65;0.90;;;;;;;;;;5087435;28;20032;-79
2021/04/15 02:25:51;;;;;;;4.40;0.93;;;;;;;;;;5088640;28;20038;-77
2021/04/15 02:28:23;;;;;;;2.75;0.80;;;;;;;;;;5088586;28;20509;-76
2021/04/15 02:30:54;;;;;;;3.88;0.52;;;;;;;;;;5091370;28;20016;-76
2021/04/15 02:33:22;;;;;;;2.10;0.70;;;;;;;;;;5092023;28;20035;-78
2021/04/15 02:35:50;;;;;;;6.03;1.05;;;;;;;;;;5089841;28;20064;-77
2021/04/15 02:38:23;;;;;;;2.53;0.90;;;;;;;;;;5089698;28;20032;-77
2021/04/15 02:40:52;;;;;;;3.05;0.95;;;;;;;;;;5088079;28;20016;-78
2021/04/15 02:43:24;;;;;;;4.50;0.90;;;;;;;;;;5092400;28;20115;-77
2021/04/15 02:45:53;;;;;;;2.70;1.02;;;;;;;;;;5091638;28;20493;-78
2021/04/15 02:48:30;;;;;;;6.13;0.88;;;;;;;;;;5087795;28;20039;-78
2021/04/15 02:51:04;;;;;;;4.80;1.15;;;;;;;;;;5083098;28;20041;-76
2021/04/15 02:53:56;;;;;;;1.77;0.70;;;;;;;;;;5091640;28;20032;-77
2021/04/15 02:56:24;;;;;;;4.13;0.90;;;;;;;;;;5081205;28;20035;-77
2021/04/15 02:59:00;;;;;;;3.38;0.88;;;;;;;;;;5090424;28;20036;-78
2021/04/15 03:01:32;;;;;;;1.50;0.77;;;;;;;;;;5088700;28;20036;-77
2021/04/15 03:03:58;;;;;;;2.53;0.82;;;;;;;;;;5088274;28;20032;-78
2021/04/15 03:06:27;;;;;;;2.53;0.82;;;;;;;;;;5084500;28;20036;-77
2021/04/15 03:08:57;;;;;;;4.75;1.10;;;;;;;;;;5091300;28;20523;-78
2021/04/15 03:11:25;;;;;;;2.13;0.70;;;;;;;;;;5077937;28;20497;-78
2021/04/15 03:13:54;;;;;;;3.80;0.90;;;;;;;;;;5090815;28;20024;-77
2021/04/15 03:16:24;;;;;;;1.27;0.63;;;;;;;;;;5077480;28;20379;-77
2021/04/15 03:18:53;;;;;;;1.67;0.70;;;;;;;;;;5088890;28;20044;-78
2021/04/15 03:21:22;;;;;;;5.82;1.20;;;;;;;;;;5091959;28;20016;-77
2021/04/15 03:23:52;;;;;;;6.65;1.30;;;;;;;;;;5088638;28;20039;-78
2021/04/15 03:26:23;;;;;;;4.45;1.42;;;;;;;;;;5088740;28;20048;-78
2021/04/15 03:29:19;;;;;;;3.55;1.00;;;;;;;;;;5083955;28;20020;-79
2021/04/15 03:31:49;;;;;;;2.97;1.20;;;;;;;;;;5060551;28;20097;-79
2021/04/15 03:34:18;;;;;;;2.70;0.95;;;;;;;;;;5080417;28;20043;-79
2021/04/15 03:36:46;;;;;;;4.85;1.15;;;;;;;;;;5083165;28;20394;-79
2021/04/15 03:39:18;;;;;;;4.78;1.02;;;;;;;;;;5090769;28;20099;-79
2021/04/15 03:41:46;;;;;;;2.03;0.90;;;;;;;;;;5092176;28;20047;-78
2021/04/15 03:44:15;;;;;;;6.00;1.48;;;;;;;;;;5090403;28;20119;-78
2021/04/15 03:46:44;;;;;;;2.97;1.17;;;;;;;;;;5087013;28;20028;-79
2021/04/15 03:49:17;;;;;;;5.25;1.35;;;;;;;;;;5086908;28;20027;-78
2021/04/15 03:51:45;;;;;;;5.43;1.15;;;;;;;;;;5087971;28;20031;-78
2021/04/15 03:54:14;;;;;;;5.15;1.63;;;;;;;;;;5078964;28;20027;-78
2021/04/15 03:56:48;;;;;;;9.68;1.85;;;;;;;;;;5085290;28;20024;-79
2021/04/15 03:59:16;;;;;;;8.20;1.67;;;;;;;;;;5087075;28;20024;-77
2021/04/15 04:01:51;;;;;;;5.00;1.52;;;;;;;;;;5085663;28;20017;-78
2021/04/15 04:04:31;;;;;;;8.23;1.38;;;;;;;;;;5087348;28;20489;-78
2021/04/15 04:06:58;;;;;;;6.03;1.45;;;;;;;;;;5083490;28;20028;-77
2021/04/15 04:09:28;;;;;;;6.60;1.55;;;;;;;;;;5082332;28;20020;-77
2021/04/15 04:11:54;;;;;;;5.28;1.45;;;;;;;;;;5083413;28;20082;-78
2021/04/15 04:14:23;;;;;;;4.93;1.70;;;;;;;;;;5088386;28;20024;-77
2021/04/15 04:17:02;;;;;;;9.40;1.50;;;;;;;;;;5087758;28;20024;-77
2021/04/15 04:19:45;;;;;;;7.13;1.63;;;;;;;;;;5086587;28;20125;-78
2021/04/15 04:22:19;;;;;;;7.10;2.20;;;;;;;;;;5082478;28;20028;-77
2021/04/15 04:24:47;;;;;;;7.35;1.40;;;;;;;;;;5087011;28;20028;-77
2021/04/15 04:27:19;;;;;;;11.95;1.75;;;;;;;;;;5084652;28;20031;-78
2021/04/15 04:29:45;;;;;;;;;;;;;;;;;;5090433;28;20024;-77
2021/04/15 04:32:14;;;;;;;6.97;1.42;;;;;;;;;;5085030;28;19915;-78
2021/04/15 04:34:41;;;;;;;13.02;1.75;;;;;;;;;;5086822;28;20485;-77
2021/04/15 04:37:10;;;;;;;13.45;2.13;;;;;;;;;;5084455;28;20020;-77
2021/04/15 04:39:37;;;;;;;10.30;1.98;;;;;;;;;;5079009;28;20136;-78
2021/04/15 04:42:03;;;;;;;10.07;1.85;;;;;;;;;;5089137;28;20024;-77
2021/04/15 04:44:47;;;;;;;14.48;2.13;;;;;;;;;;5087857;28;20521;-76
2021/04/15 04:47:32;;;;;;;8.45;2.00;;;;;;;;;;5087356;28;20031;-76
2021/04/15 04:50:04;;;;;;;12.43;1.67;;;;;;;;;;5084745;28;20020;-76
2021/04/15 04:52:32;;;;;;;10.57;2.05;;;;;;;;;;5090361;28;20032;-77
2021/04/15 04:54:59;;;;;;;9.35;2.88;;;;;;;;;;5082584;28;20562;-79
2021/04/15 04:57:32;;;;;;;11.43;2.10;;;;;;;;;;5089333;28;20055;-77
2021/04/15 05:00:05;;;;;;;11.90;2.60;;;;;;;;;;5088116;28;20024;-79
2021/04/15 05:02:31;;;;;;;7.68;2.08;;;;;;;;;;5083714;28;20127;-79
2021/04/15 05:05:20;;;;;;;10.57;2.33;;;;;;;;;;5084426;28;20020;-81
2021/04/15 05:07:48;;;;;;;12.55;2.40;;;;;;;;;;5073353;28;20067;-79
2021/04/15 05:10:18;;;;;;;10.02;2.47;;;;;;;;;;5080799;28;20047;-80
2021/04/15 05:12:45;;;;;;;9.23;1.80;;;;;;;;;;5087306;28;20137;-80
2021/04/15 05:15:12;;;;;;;15.90;3.55;;;;;;;;;;5086665;28;20031;-78
2021/04/15 05:17:40;;;;;;;10.52;2.13;;;;;;;;;;5090531;28;20052;-80
2021/04/15 05:20:08;;;;;;;9.63;2.22;;;;;;;;;;5095706;28;20020;-78
2021/04/15 05:23:07;;;;;;;9.45;2.20;;;;;;;;;;5089116;28;20043;-79
2021/04/15 05:25:37;;;;;;;14.10;2.75;;;;;;;;;;5042270;28;20043;-80
2021/04/15 05:28:04;;;;;;;8.20;2.38;;;;;;;;;;5087167;28;20027;-81
2021/04/15 05:30:33;;;;;;;9.35;2.90;;;;;;;;;;5083949;28;20065;-78
2021/04/15 05:33:00;;;;;;;8.23;2.22;;;;;;;;;;5088030;28;20028;-78
2021/04/15 05:35:30;;;;;;;10.75;2.50;;;;;;;;;;5085944;28;20024;-79
2021/04/15 05:37:56;;;;;;;13.35;3.35;;;;;;;;;;5087876;28;20027;-79
2021/04/15 05:40:22;;;;;;;12.02;3.22;;;;;;;;;;5081977;28;20024;-78
2021/04/15 05:43:04;;;;;;;7.35;2.70;;;;;;;;;;5070424;28;20398;-79
2021/04/15 05:45:31;;;;;;;7.03;2.47;;;;;;;;;;5086345;28;20036;-79
2021/04/15 05:47:59;;;;;;;9.10;2.67;;;;;;;;;;5083102;28;20039;-79
2021/04/15 05:50:31;;;;;;;8.10;2.40;;;;;;;;;;5086309;28;20111;-78
2021/04/15 05:53:09;;;;;;;8.02;2.60;;;;;;;;;;5078123;28;20028;-79
2021/04/15 05:55:46;;;;;;;11.75;2.90;;;;;;;;;;5079657;28;20023;-79
2021/04/15 05:58:18;;;;;;;10.45;2.85;;;;;;;;;;5090834;28;20093;-79
2021/04/15 06:00:44;;;;;;;;;;;;;;;;;;5085258;28;20038;-79
2021/04/15 06:03:15;;;;;;;11.95;3.03;;;;;;;;;;5082981;28;20370;-78
2021/04/15 06:05:49;;;;;;;12.15;3.45;;;;;;;;;;5089929;28;20025;-79
2021/04/15 06:08:16;;;;;;;13.75;3.97;;;;;;;;;;5078720;28;20536;-78
2021/04/15 06:10:43;;;;;;;11.50;3.13;;;;;;;;;;5092846;28;20020;-79
2021/04/15 06:13:26;;;;;;;8.25;3.10;;;;;;;;;;5087274;28;20051;-78
2021/04/15 06:15:52;;;;;;;17.13;4.38;;;;;;;;;;5086196;28;20024;-79
2021/04/15 06:18:24;;;;;;;13.25;2.40;;;;;;;;;;5081077;28;20386;-78
2021/04/15 06:21:01;;;;;;;10.65;2.25;;;;;;;;;;5088949;28;20024;-79
2021/04/15 06:23:27;;;;;;;7.55;2.03;;;;;;;;;;5084152;28;20049;-78
2021/04/15 06:25:55;;;;;;;10.95;2.17;;;;;;;;;;5091707;28;20032;-78
2021/04/15 06:28:26;;;;;;;8.95;1.70;;;;;;;;;;5093374;28;20028;-79
2021/04/15 06:31:11;;;;;;;15.85;2.20;;;;;;;;;;5087504;28;20124;-79
2021/04/15 06:33:37;;;;;;;4.88;1.33;;;;;;;;;;5091100;28;20128;-80
2021/04/15 06:36:06;;;;;;;8.77;3.40;;;;;;;;;;5092102;28;20024;-79
2021/04/15 06:38:45;;;;;;;20.63;4.60;;;;;;;;;;5099567;28;20090;-79
2021/04/15 06:41:23;;;;;;;8.48;4.10;;;;;;;;;;5078112;28;20020;-80
2021/04/15 06:44:08;;;;;;;14.48;3.90;;;;;;;;;;5084836;28;20036;-80
2021/04/15 06:46:34;;;;;;;14.00;4.07;;;;;;;;;;5087417;28;20024;-79
2021/04/15 06:49:00;;;;;;;10.70;3.53;;;;;;;;;;5083776;28;20032;-80
2021/04/15 06:51:41;;;;;;;20.38;4.35;;;;;;;;;;5086715;28;20024;-79
2021/04/15 06:54:16;;;;;;;7.35;3.58;;;;;;;;;;5084992;28;20060;-79
2021/04/15 06:56:48;;;;;;;7.68;3.30;;;;;;;;;;5076145;28;20166;-80
2021/04/15 06:59:32;;;;;;;11.82;4.43;;;;;;;;;;5084627;28;20020;-82
2021/04/15 07:02:09;;;;;;;9.90;4.18;;;;;;;;;;5085261;28;20437;-81
2021/04/15 07:04:41;;;;;;;9.50;3.00;;;;;;;;;;5082166;28;20024;-80
2021/04/15 07:07:11;;;;;;;13.88;3.50;;;;;;;;;;5086975;28;20042;-79
2021/04/15 07:09:43;;;;;;;12.90;3.58;;;;;;;;;;5079729;28;20521;-79
2021/04/15 07:12:09;;;;;;;;;;;;;;;;;;5088282;28;20600;-79
2021/04/15 07:14:47;;;;;;;9.30;3.08;;;;;;;;;;5083105;28;19951;-83
2021/04/15 07:17:32;;;;;;;8.73;2.88;;;;;;;;;;5088707;28;20027;-79
2021/04/15 07:20:13;;;;;;;9.15;2.80;;;;;;;;;;5094096;28;20073;-78
2021/04/15 07:22:58;;;;;;;7.28;2.65;;;;;;;;;;5086104;28;20099;-78
2021/04/15 07:25:43;;;;;;;8.90;3.38;;;;;;;;;;5085132;28;20016;-79
2021/04/15 07:28:09;;;;;;;8.77;3.50;;;;;;;;;;5084186;28;20039;-79
2021/04/15 07:30:48;;;;;;;8.05;3.15;;;;;;;;;;5084282;28;20020;-80
2021/04/15 07:33:23;;;;;;;9.52;3.78;;;;;;;;;;5088926;28;20036;-79
2021/04/15 07:36:07;;;;;;;12.57;3.70;;;;;;;;;;5086676;28;20042;-79
2021/04/15 07:38:51;;;;;;;11.88;3.45;;;;;;;;;;5084498;28;20124;-78
2021/04/15 07:41:20;;;;;;;9.32;3.10;;;;;;;;;;5088433;28;20036;-78
2021/04/15 07:43:46;;;;;;;11.43;3.50;;;;;;;;;;5085661;28;20054;-78
2021/04/15 07:46:18;;;;;;;11.35;3.30;;;;;;;;;;5088054;28;20035;-79
2021/04/15 07:49:03;;;;;;;11.70;3.90;;;;;;;;;;5083257;28;20490;-81
2021/04/15 07:51:40;;;;;;;10.23;3.50;;;;;;;;;;5075317;28;20035;-79
2021/04/15 07:54:20;;;;;;;10.02;3.03;;;;;;;;;;5084704;28;20089;-79
2021/04/15 07:57:08;;;;;;;6.55;1.75;;;;;;;;;;5086269;28;20025;-78
2021/04/15 07:59:52;;;;;;;8.27;3.25;;;;;;;;;;5083087;28;20024;-79
2021/04/15 08:02:37;;;;;;;8.10;2.72;;;;;;;;;;5088878;28;20032;-78
2021/04/15 08:05:03;;;;;;;14.23;1.88;;;;;;;;;;5083825;28;20020;-78
2021/04/15 08:07:46;;;;;;;11.95;2.03;;;;;;;;;;5084978;28;20044;-78
2021/04/15 08:10:12;;;;;;;5.40;1.20;;;;;;;;;;5087988;28;20085;-75
2021/04/15 08:12:41;;;;;;;6.38;1.17;;;;;;;;;;5084637;28;20493;-76
2021/04/15 08:15:26;;;;;;;8.75;1.40;;;;;;;;;;5081681;28;20028;-78
2021/04/15 08:18:12;;;;;;;8.45;1.58;;;;;;;;;;5081102;28;20146;-76
2021/04/15 08:20:57;;;;;;;6.30;1.38;;;;;;;;;;5080004;28;20444;-79
2021/04/15 08:23:43;;;;;;;6.63;1.30;;;;;;;;;;5078243;28;20066;-79
2021/04/15 08:26:36;;;;;;;9.07;1.40;;;;;;;;;;5084003;28;20512;-77
2021/04/15 08:29:15;;;;;;;11.38;1.85;;;;;;;;;;5054112;28;21594;-75
2021/04/15 08:31:48;;;;;;;7.28;1.65;;;;;;;;;;5082767;28;20032;-76
2021/04/15 08:34:20;;;;;;;4.00;0.90;;;;;;;;;;5085986;28;20031;-75
2021/04/15 08:37:04;;;;;;;5.90;1.45;;;;;;;;;;5082319;28;20470;-75
2021/04/15 08:39:35;;;;;;;6.18;2.10;;;;;;;;;;5078644;28;20052;-78
2021/04/15 08:42:10;;;;;;;6.03;1.52;;;;;;;;;;5078520;28;20027;-75
2021/04/15 08:44:55;;;;;;;5.45;1.40;;;;;;;;;;5079425;28;20040;-77
2021/04/15 08:47:29;;;;;;;7.57;1.42;;;;;;;;;;5075966;28;20040;-75
2021/04/15 08:50:08;;;;;;;7.25;1.50;;;;;;;;;;5077912;28;20030;-76
2021/04/15 08:52:47;;;;;;;7.13;1.80;;;;;;;;;;5080944;28;20062;-74
2021/04/15 08:55:25;;;;;;;11.50;1.73;;;;;;;;;;5081136;28;20506;-75
2021/04/15 08:57:51;;;;;;;7.10;1.42;;;;;;;;;;5070044;28;20386;-74
2021/04/15 09:00:29;;;;;;;5.57;1.80;;;;;;;;;;5076342;28;20035;-75
2021/04/15 09:03:14;;;;;;;11.23;1.55;;;;;;;;;;5094687;28;20182;-78
2021/04/15 09:05:43;;;;;;;8.45;1.80;;;;;;;;;;5079875;28;20028;-81
2021/04/15 09:08:15;;;;;;;10.23;1.60;;;;;;;;;;5080885;28;20061;-77
2021/04/15 09:10:52;;;;;;;5.80;1.40;;;;;;;;;;5076647;28;20023;-80
2021/04/15 09:13:21;;;;;;;9.88;1.55;;;;;;;;;;5081170;28;20038;-80
2021/04/15 09:15:47;;;;;;;11.07;1.83;;;;;;;;;;5078352;28;20521;-75
2021/04/15 09:18:26;;;;;;;5.32;1.00;;;;;;;;;;5083455;28;20043;-77
2021/04/15 09:20:58;;;;;;;8.95;1.70;;;;;;;;;;5076288;28;20092;-81
2021/04/15 09:23:26;;;;;;;7.35;1.35;;;;;;;;;;5081526;28;20485;-80
2021/04/15 09:25:58;;;;;;;6.13;1.38;;;;;;;;;;5080280;28;20035;-76
2021/04/15 09:28:46;;;;;;;8.90;1.50;;;;;;;;;;5081131;28;20261;-80
2021/04/15 09:31:15;;;;;;;7.63;1.98;;;;;;;;;;5078751;28;20124;-80
2021/04/15 09:33:47;;;;;;;4.93;1.35;;;;;;;;;;5078600;28;20066;-76
2021/04/15 09:36:35;;;;;;;8.60;1.33;;;;;;;;;;5080667;28;20482;-77
2021/04/15 09:39:01;;;;;;;10.15;1.73;;;;;;;;;;5078479;28;20020;-77
2021/04/15 09:41:39;;;;;;;8.02;1.50;;;;;;;;;;5080537;28;20032;-76
2021/04/15 09:44:05;;;;;;;6.63;1.23;;;;;;;;;;5078722;28;20426;-76
2021/04/15 09:46:31;;;;;;;5.43;1.20;;;;;;;;;;5080148;28;20063;-77
2021/04/15 09:49:16;;;;;;;5.82;1.17;;;;;;;;;;5079392;28;20032;-76
2021/04/15 09:52:01;;;;;;;7.07;1.65;;;;;;;;;;5079755;28;20051;-77
2021/04/15 09:54:27;;;;;;;10.30;1.85;;;;;;;;;;5079481;28;20051;-77
2021/04/15 09:57:18;;;;;;;9.98;2.20;;;;;;;;;;5080642;28;20492;-78
2021/04/15 10:00:08;;;;;;;6.50;1.60;;;;;;;;;;5076272;28;20028;-77
2021/04/15 10:02:53;;;;;;;5.75;1.30;;;;;;;;;;5070726;28;20288;-76
2021/04/15 10:05:41;;;;;;;6.38;2.05;;;;;;;;;;5079302;28;20073;-78
2021/04/15 10:08:12;;;;;;;7.43;2.25;;;;;;;;;;5078172;28;20032;-80
2021/04/15 10:11:07;;;;;;;9.50;2.97;;;;;;;;;;5077391;28;20151;-79
2021/04/15 10:13:52;;;;;;;9.45;3.03;;;;;;;;;;5060269;28;20127;-78
2021/04/15 10:16:25;;;;;;;13.00;2.70;;;;;;;;;;5078471;28;20032;-79
2021/04/15 10:18:59;;;;;;;11.30;2.90;;;;;;;;;;5080191;28;20085;-79
2021/04/15 10:21:37;;;;;;;10.18;2.05;;;;;;;;;;5078174;28;20036;-78
2021/04/15 10:24:12;;;;;;;7.43;1.90;;;;;;;;;;5080878;28;20023;-79
2021/04/15 10:26:44;;;;;;;8.02;2.20;;;;;;;;;;5081032;28;20036;-78
2021/04/15 10:29:29;;;;;;;5.65;2.00;;;;;;;;;;5073102;28;20024;-78
2021/04/15 10:32:07;;;;;;;7.13;2.63;;;;;;;;;;5077742;28;20040;-80
2021/04/15 10:34:36;;;;;;;11.25;3.05;;;;;;;;;;5089572;28;20031;-80
2021/04/15 10:37:09;;;;;;;8.57;2.38;;;;;;;;;;5079756;28;20055;-83
2021/04/15 10:39:53;;;;;;;12.43;2.38;;;;;;;;;;5087606;28;20608;-80
2021/04/15 10:42:22;;;;;;;9.60;2.28;;;;;;;;;;5082477;28;20118;-78
2021/04/15 10:44:48;;;;;;;10.43;2.65;;;;;;;;;;5083301;28;20098;-81
2021/04/15 10:47:14;;;;;;;9.32;2.38;;;;;;;;;;5085547;28;20031;-77
2021/04/15 10:49:43;;;;;;;7.13;1.98;;;;;;;;;;5086968;28;20024;-79
2021/04/15 10:52:28;;;;;;;11.27;2.42;;;;;;;;;;5089029;28;20051;-78
2021/04/15 10:55:11;;;;;;;9.63;2.80;;;;;;;;;;5083341;28;20042;-83
2021/04/15 10:57:37;;;;;;;7.45;2.55;;;;;;;;;;5089621;28;20036;-77
2021/04/15 11:00:26;;;;;;;15.52;3.17;;;;;;;;;;5086158;28;20028;-75
2021/04/15 11:02:52;;;;;;;10.50;2.97;;;;;;;;;;5079665;28;20073;-79
2021/04/15 11:05:21;;;;;;;10.65;2.95;;;;;;;;;;5091812;28;20024;-77
2021/04/15 11:07:48;;;;;;;7.00;2.20;;;;;;;;;;5084043;28;20043;-75
2021/04/15 11:10:20;;;;;;;9.65;3.40;;;;;;;;;;5088875;28;20394;-78
2021/04/15 11:12:46;;;;;;;;;;;;;;;;;;5091181;28;20481;-76
2021/04/15 11:15:13;;;;;;;15.77;3.33;;;;;;;;;;5089746;28;19950;-77
2021/04/15 11:17:44;;;;;;;9.70;2.72;;;;;;;;;;5088650;28;20075;-83
2021/04/15 11:20:12;;;;;;;8.88;2.00;;;;;;;;;;5090653;28;20087;-80
2021/04/15 11:22:41;;;;;;;15.50;2.40;;;;;;;;;;5090814;28;20509;-75
2021/04/15 11:25:25;;;;;;;10.25;2.25;;;;;;;;;;5091276;28;20081;-79
2021/04/15 11:27:52;;;;;;;13.73;2.53;;;;;;;;;;5087422;28;20044;-77
2021/04/15 11:30:36;;;;;;;11.50;2.22;;;;;;;;;;5085209;28;20070;-76
2021/04/15 11:33:03;;;;;;;10.45;2.50;;;;;;;;;;5090127;28;20027;-75
2021/04/15 11:35:29;;;;;;;9.32;2.42;;;;;;;;;;5092033;28;20111;-78
2021/04/15 11:38:06;;;;;;;10.25;2.20;;;;;;;;;;5092643;28;20114;-77
2021/04/15 11:40:35;;;;;;;6.85;2.55;;;;;;;;;;5088674;28;20436;-77
2021/04/15 11:43:02;;;;;;;7.03;2.20;;;;;;;;;;5091524;28;20031;-77
2021/04/15 11:45:33;;;;;;;8.60;2.22;;;;;;;;;;5089788;28;20039;-77
2021/04/15 11:48:10;;;;;;;8.05;1.75;;;;;;;;;;5091071;28;20036;-76
2021/04/15 11:50:36;;;;;;;12.05;2.58;;;;;;;;;;5086774;28;20024;-75
2021/04/15 11:53:22;;;;;;;8.48;2.40;;;;;;;;;;5090493;28;20032;-75
2021/04/15 11:55:48;;;;;;;6.40;2.33;;;;;;;;;;5094284;28;20042;-76
2021/04/15 11:58:33;;;;;;;11.43;3.95;;;;;;;;;;5085258;28;20399;-75
2021/04/15 12:01:00;;;;;;;8.27;3.60;;;;;;;;;;5082937;28;20023;-72
2021/04/15 12:03:33;;;;;;;11.18;3.67;;;;;;;;;;5091106;28;20020;-76
2021/04/15 12:06:01;;;;;;;8.02;2.88;;;;;;;;;;5089598;28;20027;-75
2021/04/15 12:08:31;;;;;;;10.57;3.03;;;;;;;;;;5084860;28;20430;-76
2021/04/15 12:11:16;;;;;;;9.75;3.65;;;;;;;;;;5094927;28;20032;-78
2021/04/15 12:13:46;;;;;;;10.18;3.58;;;;;;;;;;5094624;28;20036;-85
2021/04/15 12:16:16;;;;;;;15.18;3.80;;;;;;;;;;5098972;28;20616;-73
2021/04/15 12:18:51;;;;;;;11.30;3.60;;;;;;;;;;5104747;28;20044;-77
2021/04/15 12:21:36;;;;;;;12.68;3.72;;;;;;;;;;5102072;28;20054;-80
2021/04/15 12:24:11;;;;;;;10.55;3.53;;;;;;;;;;5089848;28;20024;-76
2021/04/15 12:26:44;;;;;;;8.52;3.30;;;;;;;;;;5086968;28;20052;-78
2021/04/15 12:29:29;;;;;;;10.52;3.45;;;;;;;;;;5087233;28;20024;-81
2021/04/15 12:32:01;;;;;;;10.25;3.22;;;;;;;;;;5081176;28;20111;-76
2021/04/15 12:34:30;;;;;;;6.75;2.92;;;;;;;;;;5091245;28;20024;-78
2021/04/15 12:37:09;;;;;;;9.48;3.08;;;;;;;;;;5087947;28;20039;-76
2021/04/15 12:40:01;;;;;;;9.10;3.13;;;;;;;;;;5083077;28;20023;-77
2021/04/15 12:42:27;;;;;;;;;;;;;;;;;;5066010;28;20029;-76
2021/04/15 12:44:58;;;;;;;13.95;4.18;;;;;;;;;;5087963;28;19958;-78
2021/04/15 12:47:25;;;;;;;9.10;2.85;;;;;;;;;;5082319;28;20043;-75
2021/04/15 12:49:52;;;;;;;13.60;3.60;;;;;;;;;;5081418;28;20017;-77
2021/04/15 12:52:19;;;;;;;8.25;2.65;;;;;;;;;;5083254;28;20036;-76
2021/04/15 12:54:45;;;;;;;10.63;3.05;;;;;;;;;;5087777;28;20042;-76
2021/04/15 12:57:14;;;;;;;12.20;2.40;;;;;;;;;;5087048;28;20410;-76
2021/04/15 12:59:42;;;;;;;15.95;2.40;;;;;;;;;;5086326;28;20024;-73
2021/04/15 13:02:29;;;;;;;9.00;1.75;;;;;;;;;;5077508;28;20490;-76
2021/04/15 13:04:59;;;;;;;6.68;1.90;;;;;;;;;;5089711;28;20538;-75
2021/04/15 13:07:25;;;;;;;10.50;2.33;;;;;;;;;;5084518;28;20509;-77
2021/04/15 13:09:53;;;;;;;7.45;1.90;;;;;;;;;;5085197;28;20028;-78
2021/04/15 13:12:19;;;;;;;8.70;3.05;;;;;;;;;;5081427;28;20090;-74
2021/04/15 13:14:46;;;;;;;5.88;2.10;;;;;;;;;;5080814;28;20490;-77
2021/04/15 13:17:14;;;;;;;14.55;2.15;;;;;;;;;;5078887;28;20032;-75
2021/04/15 13:19:50;;;;;;;6.35;1.70;;;;;;;;;;5085070;28;20049;-72
2021/04/15 13:22:19;;;;;;;6.25;1.98;;;;;;;;;;5083291;28;20024;-74
2021/04/15 13:24:50;;;;;;;6.78;3.00;;;;;;;;;;5082337;28;20032;-74
2021/04/15 13:27:38;;;;;;;10.20;2.30;;;;;;;;;;5088695;28;20558;-72
2021/04/15 13:30:22;;;;;;;7.55;1.77;;;;;;;;;;5082063;28;20028;-75
2021/04/15 13:33:11;;;;;;;10.18;2.20;;;;;;;;;;5082897;28;20024;-77
2021/04/15 13:35:40;;;;;;;9.85;1.85;;;;;;;;;;5083559;28;20028;-75
2021/04/15 13:38:39;;;;;;;17.10;2.63;;;;;;;;;;5083309;28;20020;-81
2021/04/15 13:41:07;;;;;;;8.25;1.80;;;;;;;;;;5083293;28;20020;-73
2021/04/15 13:43:34;;;;;;;7.35;1.80;;;;;;;;;;5086710;28;20024;-80
2021/04/15 13:46:18;;;;;;;13.13;2.72;;;;;;;;;;5084460;28;20036;-74
2021/04/15 13:48:46;;;;;;;4.85;1.48;;;;;;;;;;5083588;28;20035;-72
2021/04/15 13:51:13;;;;;;;7.25;1.77;;;;;;;;;;5081752;28;20530;-80
2021/04/15 13:53:44;;;;;;;9.27;2.72;;;;;;;;;;5086470;28;20382;-76
2021/04/15 13:56:10;;;;;;;7.82;1.98;;;;;;;;;;5088213;28;20466;-81
2021/04/15 13:58:37;;;;;;;8.00;1.70;;;;;;;;;;5088180;28;20106;-77
2021/04/15 14:01:23;;;;;;;8.32;1.90;;;;;;;;;;5080041;28;20032;-75
2021/04/15 14:03:49;;;;;;;11.20;1.40;;;;;;;;;;5075493;28;20024;-74
2021/04/15 14:06:24;;;;;;;7.45;1.90;;;;;;;;;;5084665;28;20081;-73
2021/04/15 14:09:10;;;;;;;10.38;1.95;;;;;;;;;;5083310;28;20462;-72
2021/04/15 14:11:38;;;;;;;15.80;2.65;;;;;;;;;;5069090;28;20032;-75
2021/04/15 14:14:08;;;;;;;8.45;1.77;;;;;;;;;;5074329;28;20043;-76
2021/04/15 14:16:34;;;;;;;9.65;1.95;;;;;;;;;;5085719;28;20043;-81
2021/04/15 14:19:11;;;;;;;11.90;2.92;;;;;;;;;;5082587;28;20040;-74
2021/04/15 14:21:40;;;;;;;13.65;2.30;;;;;;;;;;5087006;28;20032;-75
2021/04/15 14:24:24;;;;;;;11.73;2.85;;;;;;;;;;5078824;28;20039;-73
2021/04/15 14:26:53;;;;;;;14.50;2.95;;;;;;;;;;5090706;28;20028;-76
2021/04/15 14:29:25;;;;;;;10.40;1.73;;;;;;;;;;5089249;28;20144;-75
2021/04/15 14:31:53;;;;;;;12.57;2.88;;;;;;;;;;5084389;28;20024;-77
2021/04/15 14:34:28;;;;;;;11.70;2.33;;;;;;;;;;5090862;28;20021;-74
2021/04/15 14:36:56;;;;;;;12.05;2.95;;;;;;;;;;5088252;28;20057;-76
2021/04/15 14:39:25;;;;;;;10.13;2.95;;;;;;;;;;5090705;28;20506;-79
2021/04/15 14:41:52;;;;;;;13.82;3.78;;;;;;;;;;5089667;28;20028;-80
2021/04/15 14:44:19;;;;;;;11.40;3.15;;;;;;;;;;5085090;28;20029;-82
2021/04/15 14:46:46;;;;;;;13.07;3.80;;;;;;;;;;5089568;28;20035;-78
2021/04/15 14:49:13;;;;;;;8.32;2.90;;;;;;;;;;5081793;28;20448;-81
2021/04/15 14:51:40;;;;;;;11.70;3.35;;;;;;;;;;5084666;28;20574;-81
2021/04/15 14:54:23;;;;;;;9.50;2.72;;;;;;;;;;5091511;28;20020;-81
2021/04/15 14:56:50;;;;;;;7.07;2.53;;;;;;;;;;5082675;28;20024;-82
2021/04/15 14:59:22;;;;;;;10.95;3.90;;;;;;;;;;5084851;28;20074;-77
2021/04/15 15:01:48;;;;;;;;;;;;;;;;;;5084279;28;20111;-76
2021/04/15 15:04:16;;;;;;;11.15;2.97;;;;;;;;;;5097145;28;20436;-82
2021/04/15 15:06:43;;;;;;;11.13;2.50;;;;;;;;;;5075557;28;20087;-76
2021/04/15 15:09:13;;;;;;;10.60;2.60;;;;;;;;;;5083674;28;20311;-85
2021/04/15 15:11:39;;;;;;;11.93;2.70;;;;;;;;;;5083598;28;20216;-79
2021/04/15 15:14:06;;;;;;;9.07;2.70;;;;;;;;;;5077973;28;20027;-80